sensor_id;sensor_type;location;lat;lon;timestamp;temperature;humidity
62575;DHT22;53112;45.602;11.904;2022-09-09T00:02:05;24.70;66.20
62575;DHT22;53112;45.602;11.904;2022-09-09T00:04:36;24.60;66.90
62575;DHT22;53112;45.602;11.904;2022-09-09T00:07:24;24.50;67.30
62575;DHT22;53112;45.602;11.904;2022-09-09T00:16:04;24.60;66.80
62575;DHT22;53112;45.602;11.904;2022-09-09T00:21:35;24.40;67.30
62575;DHT22;53112;45.602;11.904;2022-09-09T00:24:27;24.30;67.50
62575;DHT22;53112;45.602;11.904;2022-09-09T00:27:06;24.30;66.90
62575;DHT22;53112;45.602;11.904;2022-09-09T00:29:37;24.40;66.70
62575;DHT22;53112;45.602;11.904;2022-09-09T00:32:16;24.10;68.80
62575;DHT22;53112;45.602;11.904;2022-09-09T00:35:38;24.10;68.50
62575;DHT22;53112;45.602;11.904;2022-09-09T00:37:47;24.20;68.70
62575;DHT22;53112;45.602;11.904;2022-09-09T00:40:31;23.80;69.50
62575;DHT22;53112;45.602;11.904;2022-09-09T00:46:10;23.80;69.80
62575;DHT22;53112;45.602;11.904;2022-09-09T00:51:25;23.80;69.70
62575;DHT22;53112;45.602;11.904;2022-09-09T00:56:50;23.40;71.90
62575;DHT22;53112;45.602;11.904;2022-09-09T01:03:00;23.40;71.70
62575;DHT22;53112;45.602;11.904;2022-09-09T01:07:58;23.50;71.40
62575;DHT22;53112;45.602;11.904;2022-09-09T01:10:42;23.60;71.00
62575;DHT22;53112;45.602;11.904;2022-09-09T01:13:20;23.70;70.00
62575;DHT22;53112;45.602;11.904;2022-09-09T01:15:48;23.70;69.90
62575;DHT22;53112;45.602;11.904;2022-09-09T01:18:17;23.80;69.20
62575;DHT22;53112;45.602;11.904;2022-09-09T01:21:06;24.00;68.50
62575;DHT22;53112;45.602;11.904;2022-09-09T01:23:56;23.90;69.20
62575;DHT22;53112;45.602;11.904;2022-09-09T01:26:45;23.90;69.00
62575;DHT22;53112;45.602;11.904;2022-09-09T01:29:17;24.00;68.50
62575;DHT22;53112;45.602;11.904;2022-09-09T01:34:48;24.00;68.70
62575;DHT22;53112;45.602;11.904;2022-09-09T01:37:14;24.00;68.50
62575;DHT22;53112;45.602;11.904;2022-09-09T01:39:42;23.90;68.80
62575;DHT22;53112;45.602;11.904;2022-09-09T01:42:12;23.90;69.10
62575;DHT22;53112;45.602;11.904;2022-09-09T01:44:39;23.90;68.60
62575;DHT22;53112;45.602;11.904;2022-09-09T01:47:06;23.90;69.20
62575;DHT22;53112;45.602;11.904;2022-09-09T01:49:32;23.90;69.10
62575;DHT22;53112;45.602;11.904;2022-09-09T01:52:01;23.80;69.60
62575;DHT22;53112;45.602;11.904;2022-09-09T01:54:30;23.80;69.50
62575;DHT22;53112;45.602;11.904;2022-09-09T01:57:21;23.80;69.70
62575;DHT22;53112;45.602;11.904;2022-09-09T02:08:02;23.90;69.30
62575;DHT22;53112;45.602;11.904;2022-09-09T02:10:33;23.90;69.30
62575;DHT22;53112;45.602;11.904;2022-09-09T02:13:06;23.90;69.20
62575;DHT22;53112;45.602;11.904;2022-09-09T02:18:07;23.90;69.30
62575;DHT22;53112;45.602;11.904;2022-09-09T02:20:37;23.90;69.30
62575;DHT22;53112;45.602;11.904;2022-09-09T02:23:04;24.00;69.00
62575;DHT22;53112;45.602;11.904;2022-09-09T02:25:31;24.00;68.90
62575;DHT22;53112;45.602;11.904;2022-09-09T02:27:59;24.00;68.80
62575;DHT22;53112;45.602;11.904;2022-09-09T02:30:29;24.00;68.70
62575;DHT22;53112;45.602;11.904;2022-09-09T02:32:58;23.90;68.70
62575;DHT22;53112;45.602;11.904;2022-09-09T02:35:28;24.10;68.60
62575;DHT22;53112;45.602;11.904;2022-09-09T02:38:02;24.10;68.20
62575;DHT22;53112;45.602;11.904;2022-09-09T02:40:29;24.00;68.50
62575;DHT22;53112;45.602;11.904;2022-09-09T02:42:56;24.00;68.40
62575;DHT22;53112;45.602;11.904;2022-09-09T02:45:34;24.00;68.60
62575;DHT22;53112;45.602;11.904;2022-09-09T02:48:22;24.00;68.40
62575;DHT22;53112;45.602;11.904;2022-09-09T02:51:08;24.10;68.20
62575;DHT22;53112;45.602;11.904;2022-09-09T02:53:54;23.80;68.90
62575;DHT22;53112;45.602;11.904;2022-09-09T02:56:26;23.90;68.60
62575;DHT22;53112;45.602;11.904;2022-09-09T02:58:54;24.00;68.40
62575;DHT22;53112;45.602;11.904;2022-09-09T03:01:21;24.00;68.30
62575;DHT22;53112;45.602;11.904;2022-09-09T03:03:46;24.10;68.00
62575;DHT22;53112;45.602;11.904;2022-09-09T03:06:13;24.10;68.10
62575;DHT22;53112;45.602;11.904;2022-09-09T03:08:40;24.10;67.80
62575;DHT22;53112;45.602;11.904;2022-09-09T03:11:07;24.10;67.60
62575;DHT22;53112;45.602;11.904;2022-09-09T03:13:35;24.00;68.00
62575;DHT22;53112;45.602;11.904;2022-09-09T03:16:01;24.00;67.90
62575;DHT22;53112;45.602;11.904;2022-09-09T03:18:27;24.10;67.40
62575;DHT22;53112;45.602;11.904;2022-09-09T03:20:54;24.00;67.50
62575;DHT22;53112;45.602;11.904;2022-09-09T03:23:20;24.00;67.80
62575;DHT22;53112;45.602;11.904;2022-09-09T03:25:48;24.10;67.50
62575;DHT22;53112;45.602;11.904;2022-09-09T03:28:14;23.90;67.80
62575;DHT22;53112;45.602;11.904;2022-09-09T03:30:40;23.90;67.60
62575;DHT22;53112;45.602;11.904;2022-09-09T03:33:06;23.90;67.40
62575;DHT22;53112;45.602;11.904;2022-09-09T03:35:32;24.10;67.00
62575;DHT22;53112;45.602;11.904;2022-09-09T03:37:58;24.10;66.90
62575;DHT22;53112;45.602;11.904;2022-09-09T03:40:26;24.10;66.80
62575;DHT22;53112;45.602;11.904;2022-09-09T03:42:52;24.10;66.70
62575;DHT22;53112;45.602;11.904;2022-09-09T03:45:18;24.10;66.60
62575;DHT22;53112;45.602;11.904;2022-09-09T03:47:44;24.10;66.70
62575;DHT22;53112;45.602;11.904;2022-09-09T03:50:10;24.10;66.50
62575;DHT22;53112;45.602;11.904;2022-09-09T03:52:37;24.10;66.70
62575;DHT22;53112;45.602;11.904;2022-09-09T03:55:05;24.10;66.60
62575;DHT22;53112;45.602;11.904;2022-09-09T03:57:31;24.00;66.70
62575;DHT22;53112;45.602;11.904;2022-09-09T04:00:06;24.00;67.20
62575;DHT22;53112;45.602;11.904;2022-09-09T04:02:33;24.10;66.60
62575;DHT22;53112;45.602;11.904;2022-09-09T04:04:59;24.10;66.40
62575;DHT22;53112;45.602;11.904;2022-09-09T04:07:25;24.00;66.50
62575;DHT22;53112;45.602;11.904;2022-09-09T04:09:53;24.00;66.60
62575;DHT22;53112;45.602;11.904;2022-09-09T04:12:20;23.90;66.60
62575;DHT22;53112;45.602;11.904;2022-09-09T04:14:46;23.90;66.50
62575;DHT22;53112;45.602;11.904;2022-09-09T04:17:12;23.90;66.60
62575;DHT22;53112;45.602;11.904;2022-09-09T04:19:38;23.90;66.50
62575;DHT22;53112;45.602;11.904;2022-09-09T04:22:04;23.90;66.50
62575;DHT22;53112;45.602;11.904;2022-09-09T04:24:30;23.80;66.40
62575;DHT22;53112;45.602;11.904;2022-09-09T04:26:56;23.80;66.60
62575;DHT22;53112;45.602;11.904;2022-09-09T04:29:23;23.70;67.00
62575;DHT22;53112;45.602;11.904;2022-09-09T04:31:49;23.70;67.00
62575;DHT22;53112;45.602;11.904;2022-09-09T04:34:15;23.70;67.10
62575;DHT22;53112;45.602;11.904;2022-09-09T04:36:41;23.60;67.60
62575;DHT22;53112;45.602;11.904;2022-09-09T04:39:07;23.60;67.70
62575;DHT22;53112;45.602;11.904;2022-09-09T04:41:33;23.50;68.50
62575;DHT22;53112;45.602;11.904;2022-09-09T04:43:59;23.50;67.90
62575;DHT22;53112;45.602;11.904;2022-09-09T04:46:27;23.50;68.20
62575;DHT22;53112;45.602;11.904;2022-09-09T04:48:53;23.50;68.10
62575;DHT22;53112;45.602;11.904;2022-09-09T04:51:19;23.40;68.80
62575;DHT22;53112;45.602;11.904;2022-09-09T04:53:45;23.40;68.40
62575;DHT22;53112;45.602;11.904;2022-09-09T04:56:17;23.50;68.00
62575;DHT22;53112;45.602;11.904;2022-09-09T04:58:42;23.60;67.70
62575;DHT22;53112;45.602;11.904;2022-09-09T05:01:13;23.60;67.90
62575;DHT22;53112;45.602;11.904;2022-09-09T05:03:40;23.60;67.50
62575;DHT22;53112;45.602;11.904;2022-09-09T05:06:16;23.70;67.30
62575;DHT22;53112;45.602;11.904;2022-09-09T05:08:43;23.80;67.00
62575;DHT22;53112;45.602;11.904;2022-09-09T05:11:29;23.90;67.00
62575;DHT22;53112;45.602;11.904;2022-09-09T05:13:55;24.00;67.00
62575;DHT22;53112;45.602;11.904;2022-09-09T05:16:22;24.10;66.80
62575;DHT22;53112;45.602;11.904;2022-09-09T05:18:48;24.20;66.50
62575;DHT22;53112;45.602;11.904;2022-09-09T05:21:17;24.40;66.10
62575;DHT22;53112;45.602;11.904;2022-09-09T05:23:44;24.50;65.70
62575;DHT22;53112;45.602;11.904;2022-09-09T05:26:15;24.60;65.50
62575;DHT22;53112;45.602;11.904;2022-09-09T05:28:41;24.60;65.60
62575;DHT22;53112;45.602;11.904;2022-09-09T05:31:09;24.70;65.50
62575;DHT22;53112;45.602;11.904;2022-09-09T05:33:39;24.80;65.10
62575;DHT22;53112;45.602;11.904;2022-09-09T05:36:17;25.10;65.10
62575;DHT22;53112;45.602;11.904;2022-09-09T05:38:43;25.20;64.60
62575;DHT22;53112;45.602;11.904;2022-09-09T05:41:12;25.40;64.10
62575;DHT22;53112;45.602;11.904;2022-09-09T05:43:38;25.50;64.10
62575;DHT22;53112;45.602;11.904;2022-09-09T05:46:05;25.60;63.70
62575;DHT22;53112;45.602;11.904;2022-09-09T05:48:33;25.70;63.20
62575;DHT22;53112;45.602;11.904;2022-09-09T05:51:00;25.80;62.80
62575;DHT22;53112;45.602;11.904;2022-09-09T05:53:28;25.80;62.70
62575;DHT22;53112;45.602;11.904;2022-09-09T05:56:03;25.80;62.80
62575;DHT22;53112;45.602;11.904;2022-09-09T05:58:30;25.90;63.00
62575;DHT22;53112;45.602;11.904;2022-09-09T06:03:34;25.70;63.20
62575;DHT22;53112;45.602;11.904;2022-09-09T06:06:06;25.90;63.00
62575;DHT22;53112;45.602;11.904;2022-09-09T06:08:37;26.10;62.70
62575;DHT22;53112;45.602;11.904;2022-09-09T06:11:12;26.20;62.60
62575;DHT22;53112;45.602;11.904;2022-09-09T06:13:41;26.30;61.40
62575;DHT22;53112;45.602;11.904;2022-09-09T06:16:12;26.40;61.50
62575;DHT22;53112;45.602;11.904;2022-09-09T06:18:38;26.60;60.90
62575;DHT22;53112;45.602;11.904;2022-09-09T06:21:07;26.80;60.40
62575;DHT22;53112;45.602;11.904;2022-09-09T06:23:34;27.00;60.40
62575;DHT22;53112;45.602;11.904;2022-09-09T06:26:05;26.60;60.60
62575;DHT22;53112;45.602;11.904;2022-09-09T06:28:33;27.00;60.10
62575;DHT22;53112;45.602;11.904;2022-09-09T06:31:08;27.50;58.90
62575;DHT22;53112;45.602;11.904;2022-09-09T06:33:39;27.80;57.60
62575;DHT22;53112;45.602;11.904;2022-09-09T06:36:17;27.80;57.20
62575;DHT22;53112;45.602;11.904;2022-09-09T06:38:44;28.10;57.00
62575;DHT22;53112;45.602;11.904;2022-09-09T06:41:12;28.00;56.60
62575;DHT22;53112;45.602;11.904;2022-09-09T06:43:38;28.10;55.60
62575;DHT22;53112;45.602;11.904;2022-09-09T06:46:15;28.20;57.10
62575;DHT22;53112;45.602;11.904;2022-09-09T06:48:43;28.40;56.30
62575;DHT22;53112;45.602;11.904;2022-09-09T06:51:14;28.60;55.70
62575;DHT22;53112;45.602;11.904;2022-09-09T06:53:42;28.80;55.70
62575;DHT22;53112;45.602;11.904;2022-09-09T06:58:39;28.90;55.40
62575;DHT22;53112;45.602;11.904;2022-09-09T07:01:11;28.90;55.70
62575;DHT22;53112;45.602;11.904;2022-09-09T07:03:39;28.60;56.00
62575;DHT22;53112;45.602;11.904;2022-09-09T07:06:06;28.60;56.20
62575;DHT22;53112;45.602;11.904;2022-09-09T07:08:33;29.00;55.70
62575;DHT22;53112;45.602;11.904;2022-09-09T07:11:03;29.20;55.40
62575;DHT22;53112;45.602;11.904;2022-09-09T07:13:33;29.30;54.80
62575;DHT22;53112;45.602;11.904;2022-09-09T07:16:11;29.90;54.30
62575;DHT22;53112;45.602;11.904;2022-09-09T07:18:39;30.00;53.60
62575;DHT22;53112;45.602;11.904;2022-09-09T07:21:06;29.70;53.60
62575;DHT22;53112;45.602;11.904;2022-09-09T07:23:32;28.90;55.30
62575;DHT22;53112;45.602;11.904;2022-09-09T07:26:01;29.10;54.30
62575;DHT22;53112;45.602;11.904;2022-09-09T07:28:27;29.10;54.60
62575;DHT22;53112;45.602;11.904;2022-09-09T07:30:59;29.10;54.50
62575;DHT22;53112;45.602;11.904;2022-09-09T07:33:29;29.00;54.50
62575;DHT22;53112;45.602;11.904;2022-09-09T07:38:49;28.80;55.00
62575;DHT22;53112;45.602;11.904;2022-09-09T07:41:17;29.00;54.70
62575;DHT22;53112;45.602;11.904;2022-09-09T07:43:46;29.30;53.80
62575;DHT22;53112;45.602;11.904;2022-09-09T07:46:14;30.20;52.20
62575;DHT22;53112;45.602;11.904;2022-09-09T07:48:52;30.80;50.70
62575;DHT22;53112;45.602;11.904;2022-09-09T07:51:30;31.10;50.10
62575;DHT22;53112;45.602;11.904;2022-09-09T07:53:58;31.10;50.20
62575;DHT22;53112;45.602;11.904;2022-09-09T07:56:26;31.00;49.30
62575;DHT22;53112;45.602;11.904;2022-09-09T07:58:54;31.00;50.20
62575;DHT22;53112;45.602;11.904;2022-09-09T08:01:23;30.80;49.20
62575;DHT22;53112;45.602;11.904;2022-09-09T08:04:00;30.30;50.80
62575;DHT22;53112;45.602;11.904;2022-09-09T08:06:33;30.10;51.80
62575;DHT22;53112;45.602;11.904;2022-09-09T08:09:00;29.90;52.30
62575;DHT22;53112;45.602;11.904;2022-09-09T08:11:27;29.60;52.40
62575;DHT22;53112;45.602;11.904;2022-09-09T08:13:55;29.50;52.60
62575;DHT22;53112;45.602;11.904;2022-09-09T08:16:26;29.50;52.90
62575;DHT22;53112;45.602;11.904;2022-09-09T08:18:54;29.60;52.40
62575;DHT22;53112;45.602;11.904;2022-09-09T08:21:23;30.00;52.40
62575;DHT22;53112;45.602;11.904;2022-09-09T08:23:52;30.40;51.50
62575;DHT22;53112;45.602;11.904;2022-09-09T08:26:23;30.10;51.40
62575;DHT22;53112;45.602;11.904;2022-09-09T08:28:54;29.80;51.90
62575;DHT22;53112;45.602;11.904;2022-09-09T08:31:33;29.60;52.00
62575;DHT22;53112;45.602;11.904;2022-09-09T08:34:00;29.50;51.50
62575;DHT22;53112;45.602;11.904;2022-09-09T08:36:31;29.10;52.30
62575;DHT22;53112;45.602;11.904;2022-09-09T08:38:59;29.00;52.60
62575;DHT22;53112;45.602;11.904;2022-09-09T08:44:08;28.70;53.40
62575;DHT22;53112;45.602;11.904;2022-09-09T08:49:18;28.80;53.00
62575;DHT22;53112;45.602;11.904;2022-09-09T08:51:48;28.80;53.40
62575;DHT22;53112;45.602;11.904;2022-09-09T08:54:16;28.50;54.40
62575;DHT22;53112;45.602;11.904;2022-09-09T08:56:43;28.60;53.70
62575;DHT22;53112;45.602;11.904;2022-09-09T08:59:13;28.80;53.70
62575;DHT22;53112;45.602;11.904;2022-09-09T09:04:29;32.00;46.50
62575;DHT22;53112;45.602;11.904;2022-09-09T09:10:01;31.60;46.60
62575;DHT22;53112;45.602;11.904;2022-09-09T09:12:32;31.30;46.60
62575;DHT22;53112;45.602;11.904;2022-09-09T09:15:01;31.30;47.10
62575;DHT22;53112;45.602;11.904;2022-09-09T09:17:28;32.40;45.60
62575;DHT22;53112;45.602;11.904;2022-09-09T09:19:58;33.00;43.70
62575;DHT22;53112;45.602;11.904;2022-09-09T09:23:01;33.10;42.20
62575;DHT22;53112;45.602;11.904;2022-09-09T09:25:34;33.30;42.00
62575;DHT22;53112;45.602;11.904;2022-09-09T09:28:12;33.10;43.00
62575;DHT22;53112;45.602;11.904;2022-09-09T09:31:04;34.20;42.30
62575;DHT22;53112;45.602;11.904;2022-09-09T09:33:44;34.40;39.90
62575;DHT22;53112;45.602;11.904;2022-09-09T09:36:13;34.30;40.10
62575;DHT22;53112;45.602;11.904;2022-09-09T09:38:57;35.00;39.60
62575;DHT22;53112;45.602;11.904;2022-09-09T09:41:34;35.90;38.40
62575;DHT22;53112;45.602;11.904;2022-09-09T09:44:03;36.00;37.70
62575;DHT22;53112;45.602;11.904;2022-09-09T09:46:29;35.40;40.50
62575;DHT22;53112;45.602;11.904;2022-09-09T09:49:05;35.60;39.40
62575;DHT22;53112;45.602;11.904;2022-09-09T09:51:34;34.50;41.80
62575;DHT22;53112;45.602;11.904;2022-09-09T09:56:43;35.30;40.70
62575;DHT22;53112;45.602;11.904;2022-09-09T10:01:54;36.10;38.70
62575;DHT22;53112;45.602;11.904;2022-09-09T10:04:23;36.10;38.40
62575;DHT22;53112;45.602;11.904;2022-09-09T10:06:49;36.00;38.80
62575;DHT22;53112;45.602;11.904;2022-09-09T10:09:28;36.40;37.30
62575;DHT22;53112;45.602;11.904;2022-09-09T10:31:34;35.20;38.20
62575;DHT22;53112;45.602;11.904;2022-09-09T10:36:50;34.70;40.10
62575;DHT22;53112;45.602;11.904;2022-09-09T10:44:41;36.40;36.50
62575;DHT22;53112;45.602;11.904;2022-09-09T10:47:37;36.70;36.30
62575;DHT22;53112;45.602;11.904;2022-09-09T10:55:33;38.00;34.00
62575;DHT22;53112;45.602;11.904;2022-09-09T10:58:03;37.20;35.90
62575;DHT22;53112;45.602;11.904;2022-09-09T11:00:41;36.90;35.10
62575;DHT22;53112;45.602;11.904;2022-09-09T11:03:17;36.90;36.00
62575;DHT22;53112;45.602;11.904;2022-09-09T11:05:50;36.60;35.00
62575;DHT22;53112;45.602;11.904;2022-09-09T11:08:24;37.30;35.50
62575;DHT22;53112;45.602;11.904;2022-09-09T11:11:04;36.20;36.90
62575;DHT22;53112;45.602;11.904;2022-09-09T11:16:39;35.10;38.60
62575;DHT22;53112;45.602;11.904;2022-09-09T11:19:18;34.30;39.50
62575;DHT22;53112;45.602;11.904;2022-09-09T11:21:49;34.50;39.80
62575;DHT22;53112;45.602;11.904;2022-09-09T11:24:20;33.60;41.50
62575;DHT22;53112;45.602;11.904;2022-09-09T11:29:59;33.70;42.20
62575;DHT22;53112;45.602;11.904;2022-09-09T11:40:35;34.10;42.20
62575;DHT22;53112;45.602;11.904;2022-09-09T11:43:09;34.20;41.40
62575;DHT22;53112;45.602;11.904;2022-09-09T11:45:40;33.80;42.20
62575;DHT22;53112;45.602;11.904;2022-09-09T11:53:31;31.90;45.70
62575;DHT22;53112;45.602;11.904;2022-09-09T11:56:07;32.50;44.50
62575;DHT22;53112;45.602;11.904;2022-09-09T11:58:40;32.20;44.40
62575;DHT22;53112;45.602;11.904;2022-09-09T12:01:29;32.00;45.40
62575;DHT22;53112;45.602;11.904;2022-09-09T12:06:32;32.00;45.70
62575;DHT22;53112;45.602;11.904;2022-09-09T12:11:45;31.70;46.60
62575;DHT22;53112;45.602;11.904;2022-09-09T12:17:25;30.90;48.00
62575;DHT22;53112;45.602;11.904;2022-09-09T12:20:15;31.20;47.70
62575;DHT22;53112;45.602;11.904;2022-09-09T12:28:23;31.20;47.60
62575;DHT22;53112;45.602;11.904;2022-09-09T12:30:57;31.40;47.40
62575;DHT22;53112;45.602;11.904;2022-09-09T12:33:24;31.30;47.80
62575;DHT22;53112;45.602;11.904;2022-09-09T12:35:59;31.10;48.40
62575;DHT22;53112;45.602;11.904;2022-09-09T12:38:37;31.10;48.70
62575;DHT22;53112;45.602;11.904;2022-09-09T12:41:05;31.20;47.50
62575;DHT22;53112;45.602;11.904;2022-09-09T12:43:32;30.90;48.70
62575;DHT22;53112;45.602;11.904;2022-09-09T12:46:01;31.10;48.60
62575;DHT22;53112;45.602;11.904;2022-09-09T12:48:41;31.20;47.90
62575;DHT22;53112;45.602;11.904;2022-09-09T12:51:43;30.80;48.20
62575;DHT22;53112;45.602;11.904;2022-09-09T12:54:03;30.60;52.80
62575;DHT22;53112;45.602;11.904;2022-09-09T12:56:32;29.80;53.50
62575;DHT22;53112;45.602;11.904;2022-09-09T12:58:59;29.30;57.40
62575;DHT22;53112;45.602;11.904;2022-09-09T13:01:32;28.20;62.20
62575;DHT22;53112;45.602;11.904;2022-09-09T13:04:01;25.90;69.30
62575;DHT22;53112;45.602;11.904;2022-09-09T13:06:29;24.50;71.40
62575;DHT22;53112;45.602;11.904;2022-09-09T13:08:58;24.10;71.70
62575;DHT22;53112;45.602;11.904;2022-09-09T13:11:46;24.00;71.20
62575;DHT22;53112;45.602;11.904;2022-09-09T13:14:28;23.80;67.70
62575;DHT22;53112;45.602;11.904;2022-09-09T13:16:57;23.60;66.10
62575;DHT22;53112;45.602;11.904;2022-09-09T13:19:24;24.00;65.00
62575;DHT22;53112;45.602;11.904;2022-09-09T13:21:55;24.00;66.60
62575;DHT22;53112;45.602;11.904;2022-09-09T13:24:34;24.10;66.70
62575;DHT22;53112;45.602;11.904;2022-09-09T13:27:01;24.20;67.30
62575;DHT22;53112;45.602;11.904;2022-09-09T13:29:28;24.60;64.50
62575;DHT22;53112;45.602;11.904;2022-09-09T13:32:04;24.90;65.40
62575;DHT22;53112;45.602;11.904;2022-09-09T13:34:34;25.10;68.10
62575;DHT22;53112;45.602;11.904;2022-09-09T13:37:20;25.60;66.20
62575;DHT22;53112;45.602;11.904;2022-09-09T13:39:52;26.00;65.10
62575;DHT22;53112;45.602;11.904;2022-09-09T13:42:30;26.20;63.70
62575;DHT22;53112;45.602;11.904;2022-09-09T13:44:58;27.10;63.20
62575;DHT22;53112;45.602;11.904;2022-09-09T13:47:34;27.60;61.30
62575;DHT22;53112;45.602;11.904;2022-09-09T13:50:30;28.80;60.90
62575;DHT22;53112;45.602;11.904;2022-09-09T13:52:57;30.40;58.10
62575;DHT22;53112;45.602;11.904;2022-09-09T13:55:26;30.50;53.40
62575;DHT22;53112;45.602;11.904;2022-09-09T13:57:57;30.40;53.70
62575;DHT22;53112;45.602;11.904;2022-09-09T14:00:24;30.20;54.30
62575;DHT22;53112;45.602;11.904;2022-09-09T14:02:51;30.20;54.40
62575;DHT22;53112;45.602;11.904;2022-09-09T14:05:18;30.10;54.10
62575;DHT22;53112;45.602;11.904;2022-09-09T14:07:45;30.10;54.40
62575;DHT22;53112;45.602;11.904;2022-09-09T14:10:12;29.90;54.80
62575;DHT22;53112;45.602;11.904;2022-09-09T14:12:38;29.80;54.00
62575;DHT22;53112;45.602;11.904;2022-09-09T14:15:06;29.60;54.70
62575;DHT22;53112;45.602;11.904;2022-09-09T14:17:33;30.40;54.20
62575;DHT22;53112;45.602;11.904;2022-09-09T14:20:03;30.60;51.80
62575;DHT22;53112;45.602;11.904;2022-09-09T14:22:31;30.40;51.50
62575;DHT22;53112;45.602;11.904;2022-09-09T14:24:57;30.60;50.80
62575;DHT22;53112;45.602;11.904;2022-09-09T14:27:23;30.50;51.70
62575;DHT22;53112;45.602;11.904;2022-09-09T14:29:52;30.40;51.80
62575;DHT22;53112;45.602;11.904;2022-09-09T14:32:18;30.70;51.60
62575;DHT22;53112;45.602;11.904;2022-09-09T14:34:44;30.60;51.10
62575;DHT22;53112;45.602;11.904;2022-09-09T14:37:10;30.90;51.60
62575;DHT22;53112;45.602;11.904;2022-09-09T14:39:35;31.60;49.10
62575;DHT22;53112;45.602;11.904;2022-09-09T14:42:01;31.80;48.40
62575;DHT22;53112;45.602;11.904;2022-09-09T14:44:28;31.80;48.20
62575;DHT22;53112;45.602;11.904;2022-09-09T14:46:54;32.00;48.00
62575;DHT22;53112;45.602;11.904;2022-09-09T14:49:20;32.10;47.40
62575;DHT22;53112;45.602;11.904;2022-09-09T14:51:46;32.20;46.30
62575;DHT22;53112;45.602;11.904;2022-09-09T14:54:12;32.70;45.80
62575;DHT22;53112;45.602;11.904;2022-09-09T14:56:40;32.90;46.40
62575;DHT22;53112;45.602;11.904;2022-09-09T14:59:06;32.90;46.30
62575;DHT22;53112;45.602;11.904;2022-09-09T15:01:32;32.90;45.90
62575;DHT22;53112;45.602;11.904;2022-09-09T15:04:00;32.70;45.20
62575;DHT22;53112;45.602;11.904;2022-09-09T15:06:28;32.90;44.90
62575;DHT22;53112;45.602;11.904;2022-09-09T15:08:56;33.10;45.10
62575;DHT22;53112;45.602;11.904;2022-09-09T15:11:25;32.90;44.00
62575;DHT22;53112;45.602;11.904;2022-09-09T15:13:52;33.00;45.10
62575;DHT22;53112;45.602;11.904;2022-09-09T15:16:22;33.30;43.80
62575;DHT22;53112;45.602;11.904;2022-09-09T15:18:51;33.00;44.50
62575;DHT22;53112;45.602;11.904;2022-09-09T15:21:21;33.40;44.30
62575;DHT22;53112;45.602;11.904;2022-09-09T15:23:49;33.50;44.00
62575;DHT22;53112;45.602;11.904;2022-09-09T15:26:15;33.80;42.10
62575;DHT22;53112;45.602;11.904;2022-09-09T15:28:44;35.00;41.40
62575;DHT22;53112;45.602;11.904;2022-09-09T15:31:16;35.40;39.00
62575;DHT22;53112;45.602;11.904;2022-09-09T15:33:53;36.10;37.60
62575;DHT22;53112;45.602;11.904;2022-09-09T15:36:31;36.70;37.10
62575;DHT22;53112;45.602;11.904;2022-09-09T15:38:58;37.10;36.50
62575;DHT22;53112;45.602;11.904;2022-09-09T15:41:25;38.40;34.50
62575;DHT22;53112;45.602;11.904;2022-09-09T15:43:52;36.70;35.50
62575;DHT22;53112;45.602;11.904;2022-09-09T15:46:35;37.90;33.80
62575;DHT22;53112;45.602;11.904;2022-09-09T15:51:29;38.80;32.80
62575;DHT22;53112;45.602;11.904;2022-09-09T15:53:57;40.10;31.20
62575;DHT22;53112;45.602;11.904;2022-09-09T15:56:25;39.90;30.30
62575;DHT22;53112;45.602;11.904;2022-09-09T15:58:55;39.90;31.00
62575;DHT22;53112;45.602;11.904;2022-09-09T16:01:21;41.10;29.60
62575;DHT22;53112;45.602;11.904;2022-09-09T16:03:47;41.30;28.70
62575;DHT22;53112;45.602;11.904;2022-09-09T16:06:20;41.70;28.80
62575;DHT22;53112;45.602;11.904;2022-09-09T16:08:49;41.00;29.30
62575;DHT22;53112;45.602;11.904;2022-09-09T16:11:21;41.60;28.50
62575;DHT22;53112;45.602;11.904;2022-09-09T16:13:49;41.80;28.20
62575;DHT22;53112;45.602;11.904;2022-09-09T16:16:18;41.80;27.70
62575;DHT22;53112;45.602;11.904;2022-09-09T16:18:47;41.20;28.70
62575;DHT22;53112;45.602;11.904;2022-09-09T16:21:32;41.70;28.20
62575;DHT22;53112;45.602;11.904;2022-09-09T16:24:00;41.60;28.80
62575;DHT22;53112;45.602;11.904;2022-09-09T16:26:29;40.30;29.80
62575;DHT22;53112;45.602;11.904;2022-09-09T16:28:56;37.00;34.70
62575;DHT22;53112;45.602;11.904;2022-09-09T16:31:25;34.90;38.40
62575;DHT22;53112;45.602;11.904;2022-09-09T16:33:52;33.00;41.40
62575;DHT22;53112;45.602;11.904;2022-09-09T16:36:21;32.10;43.50
62575;DHT22;53112;45.602;11.904;2022-09-09T16:38:47;31.80;44.50
62575;DHT22;53112;45.602;11.904;2022-09-09T16:41:14;31.10;45.40
62575;DHT22;53112;45.602;11.904;2022-09-09T16:43:40;30.90;46.00
62575;DHT22;53112;45.602;11.904;2022-09-09T16:46:16;30.50;47.20
62575;DHT22;53112;45.602;11.904;2022-09-09T16:48:45;30.20;47.80
62575;DHT22;53112;45.602;11.904;2022-09-09T16:51:14;29.80;48.50
62575;DHT22;53112;45.602;11.904;2022-09-09T16:53:41;29.90;48.70
62575;DHT22;53112;45.602;11.904;2022-09-09T16:56:13;29.90;48.70
62575;DHT22;53112;45.602;11.904;2022-09-09T16:58:40;29.90;49.20
62575;DHT22;53112;45.602;11.904;2022-09-09T17:01:09;29.80;49.30
62575;DHT22;53112;45.602;11.904;2022-09-09T17:03:37;29.80;49.30
62575;DHT22;53112;45.602;11.904;2022-09-09T17:06:09;29.80;49.50
62575;DHT22;53112;45.602;11.904;2022-09-09T17:08:35;30.00;49.40
62575;DHT22;53112;45.602;11.904;2022-09-09T17:11:01;29.90;49.50
62575;DHT22;53112;45.602;11.904;2022-09-09T17:13:27;29.80;49.60
62575;DHT22;53112;45.602;11.904;2022-09-09T17:15:53;29.60;50.10
62575;DHT22;53112;45.602;11.904;2022-09-09T17:18:19;29.50;50.10
62575;DHT22;53112;45.602;11.904;2022-09-09T17:20:46;29.40;50.20
62575;DHT22;53112;45.602;11.904;2022-09-09T17:23:12;29.10;50.80
62575;DHT22;53112;45.602;11.904;2022-09-09T17:25:41;28.80;51.20
62575;DHT22;53112;45.602;11.904;2022-09-09T17:28:07;28.50;52.20
62575;DHT22;53112;45.602;11.904;2022-09-09T17:30:36;28.00;53.80
62575;DHT22;53112;45.602;11.904;2022-09-09T17:33:04;27.80;54.60
62575;DHT22;53112;45.602;11.904;2022-09-09T17:35:30;27.60;54.90
62575;DHT22;53112;45.602;11.904;2022-09-09T17:37:56;27.60;55.50
62575;DHT22;53112;45.602;11.904;2022-09-09T17:40:22;27.30;55.80
62575;DHT22;53112;45.602;11.904;2022-09-09T17:42:48;27.50;55.80
62575;DHT22;53112;45.602;11.904;2022-09-09T17:45:15;27.40;55.90
62575;DHT22;53112;45.602;11.904;2022-09-09T17:47:41;27.10;56.70